sensor_id;sensor_type;location;lat;lon;timestamp;temperature;humidity
66119;DHT22;52912;48.564;9.302;2023-07-31T00:02:24;14.82;88.22
66119;DHT22;52912;48.564;9.302;2023-07-31T00:04:50;14.72;88.81
66119;DHT22;52912;48.564;9.302;2023-07-31T00:07:15;14.75;88.45
66119;DHT22;52912;48.564;9.302;2023-07-31T00:09:41;14.75;88.46
66119;DHT22;52912;48.564;9.302;2023-07-31T00:12:08;14.64;88.74
66119;DHT22;52912;48.564;9.302;2023-07-31T00:14:33;14.60;89.07
66119;DHT22;52912;48.564;9.302;2023-07-31T00:16:59;14.53;89.71
66119;DHT22;52912;48.564;9.302;2023-07-31T00:19:24;14.46;88.70
66119;DHT22;52912;48.564;9.302;2023-07-31T00:21:49;14.61;88.22
66119;DHT22;52912;48.564;9.302;2023-07-31T00:24:15;14.61;87.82
66119;DHT22;52912;48.564;9.302;2023-07-31T00:26:40;14.56;88.18
66119;DHT22;52912;48.564;9.302;2023-07-31T00:29:07;14.59;88.36
66119;DHT22;52912;48.564;9.302;2023-07-31T00:31:33;14.47;89.33
66119;DHT22;52912;48.564;9.302;2023-07-31T00:33:58;14.44;89.49
66119;DHT22;52912;48.564;9.302;2023-07-31T00:36:23;14.38;89.77
66119;DHT22;52912;48.564;9.302;2023-07-31T00:38:49;14.40;89.50
66119;DHT22;52912;48.564;9.302;2023-07-31T00:41:14;14.36;89.68
66119;DHT22;52912;48.564;9.302;2023-07-31T00:43:40;14.20;90.11
66119;DHT22;52912;48.564;9.302;2023-07-31T00:46:07;14.16;89.97
66119;DHT22;52912;48.564;9.302;2023-07-31T00:48:33;14.12;90.00
66119;DHT22;52912;48.564;9.302;2023-07-31T00:50:59;14.16;90.21
66119;DHT22;52912;48.564;9.302;2023-07-31T00:53:24;14.02;90.62
66119;DHT22;52912;48.564;9.302;2023-07-31T00:55:52;13.91;90.65
66119;DHT22;52912;48.564;9.302;2023-07-31T00:58:17;13.99;90.72
66119;DHT22;52912;48.564;9.302;2023-07-31T01:00:43;14.01;90.40
66119;DHT22;52912;48.564;9.302;2023-07-31T01:03:10;14.12;90.21
66119;DHT22;52912;48.564;9.302;2023-07-31T01:05:40;14.08;89.83
66119;DHT22;52912;48.564;9.302;2023-07-31T01:08:12;14.13;88.82
66119;DHT22;52912;48.564;9.302;2023-07-31T01:10:46;14.12;89.02
66119;DHT22;52912;48.564;9.302;2023-07-31T01:13:13;14.01;90.10
66119;DHT22;52912;48.564;9.302;2023-07-31T01:15:40;13.98;90.26
66119;DHT22;52912;48.564;9.302;2023-07-31T01:18:05;13.73;91.04
66119;DHT22;52912;48.564;9.302;2023-07-31T01:20:33;13.63;91.31
66119;DHT22;52912;48.564;9.302;2023-07-31T01:26:00;13.68;90.91
66119;DHT22;52912;48.564;9.302;2023-07-31T01:28:35;13.60;91.51
66119;DHT22;52912;48.564;9.302;2023-07-31T01:31:07;13.63;91.44
66119;DHT22;52912;48.564;9.302;2023-07-31T01:33:33;13.67;91.39
66119;DHT22;52912;48.564;9.302;2023-07-31T01:36:00;13.75;91.06
66119;DHT22;52912;48.564;9.302;2023-07-31T01:38:26;13.73;91.36
66119;DHT22;52912;48.564;9.302;2023-07-31T01:40:51;13.60;91.70
66119;DHT22;52912;48.564;9.302;2023-07-31T01:43:18;13.61;91.78
66119;DHT22;52912;48.564;9.302;2023-07-31T01:45:43;13.60;91.92
66119;DHT22;52912;48.564;9.302;2023-07-31T01:48:09;13.57;92.26
66119;DHT22;52912;48.564;9.302;2023-07-31T01:50:34;13.46;92.35
66119;DHT22;52912;48.564;9.302;2023-07-31T01:53:00;13.53;92.18
66119;DHT22;52912;48.564;9.302;2023-07-31T01:55:25;13.60;91.81
66119;DHT22;52912;48.564;9.302;2023-07-31T01:57:51;13.65;92.12
66119;DHT22;52912;48.564;9.302;2023-07-31T02:00:18;13.54;92.27
66119;DHT22;52912;48.564;9.302;2023-07-31T02:02:43;13.65;91.80
66119;DHT22;52912;48.564;9.302;2023-07-31T02:05:09;13.58;91.93
66119;DHT22;52912;48.564;9.302;2023-07-31T02:07:35;13.57;91.76
66119;DHT22;52912;48.564;9.302;2023-07-31T02:10:00;13.46;92.28
66119;DHT22;52912;48.564;9.302;2023-07-31T02:12:26;13.36;92.30
66119;DHT22;52912;48.564;9.302;2023-07-31T02:14:51;13.40;91.67
66119;DHT22;52912;48.564;9.302;2023-07-31T02:17:18;13.43;91.44
66119;DHT22;52912;48.564;9.302;2023-07-31T02:19:43;13.39;91.83
66119;DHT22;52912;48.564;9.302;2023-07-31T02:22:09;13.51;90.95
66119;DHT22;52912;48.564;9.302;2023-07-31T02:24:34;13.77;89.37
66119;DHT22;52912;48.564;9.302;2023-07-31T02:27:00;13.78;89.25
66119;DHT22;52912;48.564;9.302;2023-07-31T02:29:25;13.86;88.74
66119;DHT22;52912;48.564;9.302;2023-07-31T02:31:51;13.98;88.12
66119;DHT22;52912;48.564;9.302;2023-07-31T02:34:17;14.26;86.23
66119;DHT22;52912;48.564;9.302;2023-07-31T02:36:43;14.34;86.56
66119;DHT22;52912;48.564;9.302;2023-07-31T02:39:08;14.44;85.51
66119;DHT22;52912;48.564;9.302;2023-07-31T02:41:34;14.59;84.80
66119;DHT22;52912;48.564;9.302;2023-07-31T02:43:59;14.64;84.69
66119;DHT22;52912;48.564;9.302;2023-07-31T02:46:24;14.75;84.48
66119;DHT22;52912;48.564;9.302;2023-07-31T02:48:50;14.81;84.05
66119;DHT22;52912;48.564;9.302;2023-07-31T02:51:17;14.80;84.07
66119;DHT22;52912;48.564;9.302;2023-07-31T02:53:42;14.82;84.20
66119;DHT22;52912;48.564;9.302;2023-07-31T02:56:08;14.80;84.03
66119;DHT22;52912;48.564;9.302;2023-07-31T02:58:33;14.71;85.37
66119;DHT22;52912;48.564;9.302;2023-07-31T03:00:59;14.25;87.57
66119;DHT22;52912;48.564;9.302;2023-07-31T03:03:24;13.79;89.50
66119;DHT22;52912;48.564;9.302;2023-07-31T03:05:50;13.43;90.80
66119;DHT22;52912;48.564;9.302;2023-07-31T03:08:16;13.39;91.09
66119;DHT22;52912;48.564;9.302;2023-07-31T03:10:42;13.46;90.71
66119;DHT22;52912;48.564;9.302;2023-07-31T03:13:07;13.43;91.01
66119;DHT22;52912;48.564;9.302;2023-07-31T03:15:33;13.50;90.93
66119;DHT22;52912;48.564;9.302;2023-07-31T03:17:58;13.50;90.92
66119;DHT22;52912;48.564;9.302;2023-07-31T03:20:24;13.44;91.23
66119;DHT22;52912;48.564;9.302;2023-07-31T03:22:49;13.40;91.73
66119;DHT22;52912;48.564;9.302;2023-07-31T03:25:16;13.46;91.50
66119;DHT22;52912;48.564;9.302;2023-07-31T03:27:42;13.42;91.36
66119;DHT22;52912;48.564;9.302;2023-07-31T03:30:07;13.46;91.17
66119;DHT22;52912;48.564;9.302;2023-07-31T03:32:33;13.42;91.26
66119;DHT22;52912;48.564;9.302;2023-07-31T03:34:58;13.33;91.95
66119;DHT22;52912;48.564;9.302;2023-07-31T03:37:24;13.24;92.27
66119;DHT22;52912;48.564;9.302;2023-07-31T03:39:49;13.26;92.11
66119;DHT22;52912;48.564;9.302;2023-07-31T03:42:16;13.24;92.00
66119;DHT22;52912;48.564;9.302;2023-07-31T03:44:41;13.29;91.91
66119;DHT22;52912;48.564;9.302;2023-07-31T03:47:07;13.32;91.63
66119;DHT22;52912;48.564;9.302;2023-07-31T03:49:32;13.19;92.34
66119;DHT22;52912;48.564;9.302;2023-07-31T03:51:58;13.12;92.63
66119;DHT22;52912;48.564;9.302;2023-07-31T03:54:23;13.08;92.87
66119;DHT22;52912;48.564;9.302;2023-07-31T03:56:49;13.08;92.76
66119;DHT22;52912;48.564;9.302;2023-07-31T03:59:16;13.05;92.83
66119;DHT22;52912;48.564;9.302;2023-07-31T04:01:41;12.88;93.45
66119;DHT22;52912;48.564;9.302;2023-07-31T04:04:07;12.92;93.09
66119;DHT22;52912;48.564;9.302;2023-07-31T04:06:32;12.96;92.74
66119;DHT22;52912;48.564;9.302;2023-07-31T04:08:57;13.02;92.09
66119;DHT22;52912;48.564;9.302;2023-07-31T04:11:23;13.13;91.61
66119;DHT22;52912;48.564;9.302;2023-07-31T04:13:48;13.22;91.63
66119;DHT22;52912;48.564;9.302;2023-07-31T04:16:15;13.22;91.59
66119;DHT22;52912;48.564;9.302;2023-07-31T04:18:41;13.29;91.28
66119;DHT22;52912;48.564;9.302;2023-07-31T04:21:06;13.47;90.93
66119;DHT22;52912;48.564;9.302;2023-07-31T04:23:31;13.48;90.57
66119;DHT22;52912;48.564;9.302;2023-07-31T04:25:57;13.50;90.51
66119;DHT22;52912;48.564;9.302;2023-07-31T04:28:22;13.56;90.43
66119;DHT22;52912;48.564;9.302;2023-07-31T04:30:48;13.56;90.26
66119;DHT22;52912;48.564;9.302;2023-07-31T04:33:15;13.64;90.04
66119;DHT22;52912;48.564;9.302;2023-07-31T04:35:40;13.58;90.01
66119;DHT22;52912;48.564;9.302;2023-07-31T04:38:06;13.64;89.97
66119;DHT22;52912;48.564;9.302;2023-07-31T04:40:31;13.68;89.91
66119;DHT22;52912;48.564;9.302;2023-07-31T04:42:57;13.78;89.46
66119;DHT22;52912;48.564;9.302;2023-07-31T04:45:22;13.85;89.34
66119;DHT22;52912;48.564;9.302;2023-07-31T04:47:47;13.86;89.52
66119;DHT22;52912;48.564;9.302;2023-07-31T04:50:14;13.92;89.11
66119;DHT22;52912;48.564;9.302;2023-07-31T04:52:40;13.97;88.96
66119;DHT22;52912;48.564;9.302;2023-07-31T04:55:06;14.06;89.19
66119;DHT22;52912;48.564;9.302;2023-07-31T04:57:31;14.13;88.63
66119;DHT22;52912;48.564;9.302;2023-07-31T04:59:57;14.19;88.63
66119;DHT22;52912;48.564;9.302;2023-07-31T05:02:22;14.23;88.40
66119;DHT22;52912;48.564;9.302;2023-07-31T05:04:48;14.29;88.82
66119;DHT22;52912;48.564;9.302;2023-07-31T05:07:14;14.26;88.74
66119;DHT22;52912;48.564;9.302;2023-07-31T05:09:40;14.34;88.79
66119;DHT22;52912;48.564;9.302;2023-07-31T05:12:06;14.34;88.57
66119;DHT22;52912;48.564;9.302;2023-07-31T05:14:31;14.22;88.85
66119;DHT22;52912;48.564;9.302;2023-07-31T05:16:57;14.33;88.89
66119;DHT22;52912;48.564;9.302;2023-07-31T05:19:22;14.36;89.09
66119;DHT22;52912;48.564;9.302;2023-07-31T05:21:48;14.32;89.42
66119;DHT22;52912;48.564;9.302;2023-07-31T05:24:14;14.23;89.45
66119;DHT22;52912;48.564;9.302;2023-07-31T05:26:40;14.29;88.96
66119;DHT22;52912;48.564;9.302;2023-07-31T05:29:05;14.32;88.84
66119;DHT22;52912;48.564;9.302;2023-07-31T05:31:31;14.44;88.73
66119;DHT22;52912;48.564;9.302;2023-07-31T05:33:56;14.41;88.73
66119;DHT22;52912;48.564;9.302;2023-07-31T05:36:22;14.46;88.82
66119;DHT22;52912;48.564;9.302;2023-07-31T05:38:47;14.50;88.42
66119;DHT22;52912;48.564;9.302;2023-07-31T05:41:14;14.61;87.93
66119;DHT22;52912;48.564;9.302;2023-07-31T05:43:40;14.85;87.40
66119;DHT22;52912;48.564;9.302;2023-07-31T05:46:06;14.89;87.17
66119;DHT22;52912;48.564;9.302;2023-07-31T05:48:31;15.10;86.97
66119;DHT22;52912;48.564;9.302;2023-07-31T05:50:57;15.20;86.72
66119;DHT22;52912;48.564;9.302;2023-07-31T05:53:22;15.20;86.72
66119;DHT22;52912;48.564;9.302;2023-07-31T05:55:47;15.39;86.56
66119;DHT22;52912;48.564;9.302;2023-07-31T05:58:14;15.40;86.18
66119;DHT22;52912;48.564;9.302;2023-07-31T06:00:40;15.61;86.16
66119;DHT22;52912;48.564;9.302;2023-07-31T06:03:05;15.72;86.08
66119;DHT22;52912;48.564;9.302;2023-07-31T06:05:30;15.79;85.47
66119;DHT22;52912;48.564;9.302;2023-07-31T06:07:56;15.87;85.37
66119;DHT22;52912;48.564;9.302;2023-07-31T06:10:22;15.88;85.18
66119;DHT22;52912;48.564;9.302;2023-07-31T06:12:47;15.74;85.55
66119;DHT22;52912;48.564;9.302;2023-07-31T06:15:14;15.68;85.83
66119;DHT22;52912;48.564;9.302;2023-07-31T06:17:40;15.78;85.61
66119;DHT22;52912;48.564;9.302;2023-07-31T06:20:07;15.92;85.26
66119;DHT22;52912;48.564;9.302;2023-07-31T06:22:32;15.95;84.51
66119;DHT22;52912;48.564;9.302;2023-07-31T06:24:58;16.02;84.08
66119;DHT22;52912;48.564;9.302;2023-07-31T06:27:24;16.01;83.50
66119;DHT22;52912;48.564;9.302;2023-07-31T06:29:50;16.06;84.08
66119;DHT22;52912;48.564;9.302;2023-07-31T06:32:16;16.10;83.70
66119;DHT22;52912;48.564;9.302;2023-07-31T06:34:42;16.09;84.08
66119;DHT22;52912;48.564;9.302;2023-07-31T06:37:07;16.15;84.70
66119;DHT22;52912;48.564;9.302;2023-07-31T06:39:33;16.20;84.77
66119;DHT22;52912;48.564;9.302;2023-07-31T06:41:58;16.37;84.62
66119;DHT22;52912;48.564;9.302;2023-07-31T06:44:24;16.47;84.09
66119;DHT22;52912;48.564;9.302;2023-07-31T06:46:49;16.65;84.18
66119;DHT22;52912;48.564;9.302;2023-07-31T06:49:16;16.77;83.76
66119;DHT22;52912;48.564;9.302;2023-07-31T06:51:42;17.03;83.22
66119;DHT22;52912;48.564;9.302;2023-07-31T06:54:07;17.23;82.10
66119;DHT22;52912;48.564;9.302;2023-07-31T06:56:33;17.41;82.04
66119;DHT22;52912;48.564;9.302;2023-07-31T06:58:59;17.58;81.81
66119;DHT22;52912;48.564;9.302;2023-07-31T07:01:24;17.84;81.08
66119;DHT22;52912;48.564;9.302;2023-07-31T07:03:49;18.09;80.05
66119;DHT22;52912;48.564;9.302;2023-07-31T07:06:16;18.13;79.70
66119;DHT22;52912;48.564;9.302;2023-07-31T07:08:42;18.19;78.86
66119;DHT22;52912;48.564;9.302;2023-07-31T07:11:07;18.22;78.45
66119;DHT22;52912;48.564;9.302;2023-07-31T07:13:33;18.30;78.84
66119;DHT22;52912;48.564;9.302;2023-07-31T07:15:58;18.33;78.82
66119;DHT22;52912;48.564;9.302;2023-07-31T07:18:23;18.41;78.83
66119;DHT22;52912;48.564;9.302;2023-07-31T07:20:50;18.44;77.48
66119;DHT22;52912;48.564;9.302;2023-07-31T07:23:17;18.50;77.08
66119;DHT22;52912;48.564;9.302;2023-07-31T07:25:42;18.71;77.61
66119;DHT22;52912;48.564;9.302;2023-07-31T07:28:08;18.81;77.90
66119;DHT22;52912;48.564;9.302;2023-07-31T07:30:33;18.89;77.55
66119;DHT22;52912;48.564;9.302;2023-07-31T07:32:59;18.92;77.63
66119;DHT22;52912;48.564;9.302;2023-07-31T07:35:24;18.94;76.39
66119;DHT22;52912;48.564;9.302;2023-07-31T07:37:50;18.96;77.04
66119;DHT22;52912;48.564;9.302;2023-07-31T07:40:17;19.13;77.05
66119;DHT22;52912;48.564;9.302;2023-07-31T07:42:42;19.03;75.73
66119;DHT22;52912;48.564;9.302;2023-07-31T07:45:09;18.91;75.75
66119;DHT22;52912;48.564;9.302;2023-07-31T07:47:34;18.96;76.79
66119;DHT22;52912;48.564;9.302;2023-07-31T07:50:00;18.88;75.67
66119;DHT22;52912;48.564;9.302;2023-07-31T07:52:25;19.18;76.12
66119;DHT22;52912;48.564;9.302;2023-07-31T07:54:50;19.54;75.16
66119;DHT22;52912;48.564;9.302;2023-07-31T07:57:17;19.88;75.49
66119;DHT22;52912;48.564;9.302;2023-07-31T07:59:43;19.96;74.23
66119;DHT22;52912;48.564;9.302;2023-07-31T08:02:08;20.23;75.20
66119;DHT22;52912;48.564;9.302;2023-07-31T08:04:34;20.57;73.91
66119;DHT22;52912;48.564;9.302;2023-07-31T08:06:59;20.78;73.12
66119;DHT22;52912;48.564;9.302;2023-07-31T08:09:25;20.85;72.18
66119;DHT22;52912;48.564;9.302;2023-07-31T08:11:50;20.63;71.26
66119;DHT22;52912;48.564;9.302;2023-07-31T08:14:17;20.65;70.85
66119;DHT22;52912;48.564;9.302;2023-07-31T08:16:42;20.88;71.31
66119;DHT22;52912;48.564;9.302;2023-07-31T08:19:08;20.94;70.43
66119;DHT22;52912;48.564;9.302;2023-07-31T08:21:33;20.79;71.40
66119;DHT22;52912;48.564;9.302;2023-07-31T08:23:59;20.98;70.78
66119;DHT22;52912;48.564;9.302;2023-07-31T08:26:24;21.05;70.00
66119;DHT22;52912;48.564;9.302;2023-07-31T08:28:50;21.30;69.76
66119;DHT22;52912;48.564;9.302;2023-07-31T08:31:16;21.69;69.30
66119;DHT22;52912;48.564;9.302;2023-07-31T08:33:42;21.77;68.94
66119;DHT22;52912;48.564;9.302;2023-07-31T08:36:07;21.41;68.99
66119;DHT22;52912;48.564;9.302;2023-07-31T08:38:33;21.33;69.12
66119;DHT22;52912;48.564;9.302;2023-07-31T08:40:58;21.51;68.89
66119;DHT22;52912;48.564;9.302;2023-07-31T08:43:25;21.81;68.46
66119;DHT22;52912;48.564;9.302;2023-07-31T08:45:51;22.13;67.06
66119;DHT22;52912;48.564;9.302;2023-07-31T08:48:19;22.53;65.11
66119;DHT22;52912;48.564;9.302;2023-07-31T08:50:45;22.94;64.98
66119;DHT22;52912;48.564;9.302;2023-07-31T08:53:10;22.71;64.06
66119;DHT22;52912;48.564;9.302;2023-07-31T08:55:37;22.81;64.76
66119;DHT22;52912;48.564;9.302;2023-07-31T08:58:04;23.05;63.38
66119;DHT22;52912;48.564;9.302;2023-07-31T09:00:29;22.82;63.49
66119;DHT22;52912;48.564;9.302;2023-07-31T09:02:59;23.26;62.70
66119;DHT22;52912;48.564;9.302;2023-07-31T09:05:26;23.10;63.58
66119;DHT22;52912;48.564;9.302;2023-07-31T09:07:52;22.90;64.78
66119;DHT22;52912;48.564;9.302;2023-07-31T09:10:18;22.67;64.65
66119;DHT22;52912;48.564;9.302;2023-07-31T09:12:43;22.22;64.07
66119;DHT22;52912;48.564;9.302;2023-07-31T09:15:11;22.54;63.47
66119;DHT22;52912;48.564;9.302;2023-07-31T09:17:36;23.10;63.44
66119;DHT22;52912;48.564;9.302;2023-07-31T09:20:13;22.78;63.69
66119;DHT22;52912;48.564;9.302;2023-07-31T09:22:40;23.19;63.05
66119;DHT22;52912;48.564;9.302;2023-07-31T09:25:14;23.42;61.78
66119;DHT22;52912;48.564;9.302;2023-07-31T09:27:49;22.90;63.04
66119;DHT22;52912;48.564;9.302;2023-07-31T09:30:15;22.71;64.00
66119;DHT22;52912;48.564;9.302;2023-07-31T09:32:42;22.33;64.50
66119;DHT22;52912;48.564;9.302;2023-07-31T09:35:18;22.65;64.20
66119;DHT22;52912;48.564;9.302;2023-07-31T09:37:48;22.81;63.69
66119;DHT22;52912;48.564;9.302;2023-07-31T09:40:25;22.71;63.62
66119;DHT22;52912;48.564;9.302;2023-07-31T09:42:50;22.79;64.19
66119;DHT22;52912;48.564;9.302;2023-07-31T09:45:18;22.64;64.18
66119;DHT22;52912;48.564;9.302;2023-07-31T09:47:46;22.50;64.21
66119;DHT22;52912;48.564;9.302;2023-07-31T09:50:11;22.75;63.61
66119;DHT22;52912;48.564;9.302;2023-07-31T09:52:38;22.50;63.99
66119;DHT22;52912;48.564;9.302;2023-07-31T09:55:06;22.58;64.71
66119;DHT22;52912;48.564;9.302;2023-07-31T09:57:32;22.24;64.49
66119;DHT22;52912;48.564;9.302;2023-07-31T09:59:58;22.48;64.84
66119;DHT22;52912;48.564;9.302;2023-07-31T10:02:24;22.17;65.17
66119;DHT22;52912;48.564;9.302;2023-07-31T10:04:51;22.08;64.95
66119;DHT22;52912;48.564;9.302;2023-07-31T10:07:18;22.28;65.26
66119;DHT22;52912;48.564;9.302;2023-07-31T10:09:45;22.37;65.36
66119;DHT22;52912;48.564;9.302;2023-07-31T10:12:14;22.67;64.95
66119;DHT22;52912;48.564;9.302;2023-07-31T10:14:43;22.53;64.74
66119;DHT22;52912;48.564;9.302;2023-07-31T10:17:10;22.56;64.58
66119;DHT22;52912;48.564;9.302;2023-07-31T10:19:36;22.23;64.66
66119;DHT22;52912;48.564;9.302;2023-07-31T10:22:03;23.16;63.64
66119;DHT22;52912;48.564;9.302;2023-07-31T10:24:29;23.64;62.29
66119;DHT22;52912;48.564;9.302;2023-07-31T10:26:58;23.94;62.09
66119;DHT22;52912;48.564;9.302;2023-07-31T10:29:27;24.29;61.63
66119;DHT22;52912;48.564;9.302;2023-07-31T10:31:54;24.26;61.39
66119;DHT22;52912;48.564;9.302;2023-07-31T10:34:21;24.01;62.04
66119;DHT22;52912;48.564;9.302;2023-07-31T10:36:47;23.97;62.14
66119;DHT22;52912;48.564;9.302;2023-07-31T10:39:33;24.16;61.96
66119;DHT22;52912;48.564;9.302;2023-07-31T10:41:58;24.04;61.34
66119;DHT22;52912;48.564;9.302;2023-07-31T10:44:25;24.63;61.56
66119;DHT22;52912;48.564;9.302;2023-07-31T10:46:54;24.61;61.61
66119;DHT22;52912;48.564;9.302;2023-07-31T10:49:21;25.02;61.20
66119;DHT22;52912;48.564;9.302;2023-07-31T10:51:47;25.77;60.05
66119;DHT22;52912;48.564;9.302;2023-07-31T10:54:13;25.60;58.93
66119;DHT22;52912;48.564;9.302;2023-07-31T10:56:39;24.60;60.76
66119;DHT22;52912;48.564;9.302;2023-07-31T10:59:04;25.81;60.68
66119;DHT22;52912;48.564;9.302;2023-07-31T11:01:52;26.22;58.41
66119;DHT22;52912;48.564;9.302;2023-07-31T11:04:22;26.37;56.51
66119;DHT22;52912;48.564;9.302;2023-07-31T11:06:55;26.73;58.08
66119;DHT22;52912;48.564;9.302;2023-07-31T11:09:21;26.32;56.93
66119;DHT22;52912;48.564;9.302;2023-07-31T11:11:46;25.33;58.88
66119;DHT22;52912;48.564;9.302;2023-07-31T11:14:11;25.94;58.82
66119;DHT22;52912;48.564;9.302;2023-07-31T11:16:37;25.99;57.92
66119;DHT22;52912;48.564;9.302;2023-07-31T11:19:08;26.11;58.64
66119;DHT22;52912;48.564;9.302;2023-07-31T11:21:34;26.96;56.55
66119;DHT22;52912;48.564;9.302;2023-07-31T11:24:00;26.98;58.24
66119;DHT22;52912;48.564;9.302;2023-07-31T11:26:26;26.63;56.97
66119;DHT22;52912;48.564;9.302;2023-07-31T11:28:52;26.56;57.13
66119;DHT22;52912;48.564;9.302;2023-07-31T11:31:18;26.53;58.97
66119;DHT22;52912;48.564;9.302;2023-07-31T11:33:43;26.43;57.87
66119;DHT22;52912;48.564;9.302;2023-07-31T11:36:15;26.47;58.10
66119;DHT22;52912;48.564;9.302;2023-07-31T11:38:41;26.49;56.54
66119;DHT22;52912;48.564;9.302;2023-07-31T11:41:07;26.06;58.43
66119;DHT22;52912;48.564;9.302;2023-07-31T11:43:32;25.63;57.83
66119;DHT22;52912;48.564;9.302;2023-07-31T11:45:59;25.57;60.18
66119;DHT22;52912;48.564;9.302;2023-07-31T11:48:27;25.49;59.61
66119;DHT22;52912;48.564;9.302;2023-07-31T11:50:54;25.96;59.01
66119;DHT22;52912;48.564;9.302;2023-07-31T11:53:24;26.33;57.47
66119;DHT22;52912;48.564;9.302;2023-07-31T11:55:50;26.09;57.18
66119;DHT22;52912;48.564;9.302;2023-07-31T11:58:17;26.01;59.28
66119;DHT22;52912;48.564;9.302;2023-07-31T12:00:43;25.75;59.40
66119;DHT22;52912;48.564;9.302;2023-07-31T12:03:09;25.75;58.97
66119;DHT22;52912;48.564;9.302;2023-07-31T12:05:35;25.81;58.37
66119;DHT22;52912;48.564;9.302;2023-07-31T12:08:00;25.80;58.15
66119;DHT22;52912;48.564;9.302;2023-07-31T12:10:29;25.40;59.74
66119;DHT22;52912;48.564;9.302;2023-07-31T12:13:00;25.11;59.83
66119;DHT22;52912;48.564;9.302;2023-07-31T12:15:33;25.23;59.59
66119;DHT22;52912;48.564;9.302;2023-07-31T12:17:58;25.18;59.73
66119;DHT22;52912;48.564;9.302;2023-07-31T12:20:24;25.16;60.00
66119;DHT22;52912;48.564;9.302;2023-07-31T12:22:49;25.09;60.64
66119;DHT22;52912;48.564;9.302;2023-07-31T12:25:15;24.74;62.38
66119;DHT22;52912;48.564;9.302;2023-07-31T12:27:44;24.89;64.73
66119;DHT22;52912;48.564;9.302;2023-07-31T12:30:28;24.92;63.91
66119;DHT22;52912;48.564;9.302;2023-07-31T12:32:53;24.84;63.03
66119;DHT22;52912;48.564;9.302;2023-07-31T12:35:19;25.32;61.70
66119;DHT22;52912;48.564;9.302;2023-07-31T12:37:45;25.08;60.81
66119;DHT22;52912;48.564;9.302;2023-07-31T12:40:11;25.04;60.96
66119;DHT22;52912;48.564;9.302;2023-07-31T12:42:36;25.04;61.60
66119;DHT22;52912;48.564;9.302;2023-07-31T12:45:04;24.87;61.81
66119;DHT22;52912;48.564;9.302;2023-07-31T12:47:30;24.71;62.39
66119;DHT22;52912;48.564;9.302;2023-07-31T12:49:55;24.77;62.32
66119;DHT22;52912;48.564;9.302;2023-07-31T12:52:21;24.84;61.34
66119;DHT22;52912;48.564;9.302;2023-07-31T12:54:46;24.50;62.70
66119;DHT22;52912;48.564;9.302;2023-07-31T12:57:12;24.98;62.31
66119;DHT22;52912;48.564;9.302;2023-07-31T12:59:37;24.98;60.56
66119;DHT22;52912;48.564;9.302;2023-07-31T13:02:05;26.22;59.70
66119;DHT22;52912;48.564;9.302;2023-07-31T13:04:30;26.81;57.32
66119;DHT22;52912;48.564;9.302;2023-07-31T13:06:56;26.77;58.25
66119;DHT22;52912;48.564;9.302;2023-07-31T13:09:21;26.65;57.76
66119;DHT22;52912;48.564;9.302;2023-07-31T13:11:46;26.60;59.65
66119;DHT22;52912;48.564;9.302;2023-07-31T13:14:12;27.02;57.53
66119;DHT22;52912;48.564;9.302;2023-07-31T13:16:37;27.20;58.05
66119;DHT22;52912;48.564;9.302;2023-07-31T13:19:04;26.90;58.50
66119;DHT22;52912;48.564;9.302;2023-07-31T13:21:29;27.51;57.05
66119;DHT22;52912;48.564;9.302;2023-07-31T13:23:55;27.09;57.72
66119;DHT22;52912;48.564;9.302;2023-07-31T13:26:20;26.73;58.33
66119;DHT22;52912;48.564;9.302;2023-07-31T13:28:46;26.78;57.89
66119;DHT22;52912;48.564;9.302;2023-07-31T13:31:11;27.37;57.25
66119;DHT22;52912;48.564;9.302;2023-07-31T13:33:37;27.28;56.63
66119;DHT22;52912;48.564;9.302;2023-07-31T13:36:04;27.03;58.20
66119;DHT22;52912;48.564;9.302;2023-07-31T13:38:29;26.29;59.75
66119;DHT22;52912;48.564;9.302;2023-07-31T13:40:55;26.05;60.83
66119;DHT22;52912;48.564;9.302;2023-07-31T13:43:20;25.89;60.23
66119;DHT22;52912;48.564;9.302;2023-07-31T13:45:46;26.13;61.16
66119;DHT22;52912;48.564;9.302;2023-07-31T13:48:11;26.02;60.37
66119;DHT22;52912;48.564;9.302;2023-07-31T13:50:36;25.91;60.62
66119;DHT22;52912;48.564;9.302;2023-07-31T13:53:03;25.54;61.08
66119;DHT22;52912;48.564;9.302;2023-07-31T13:55:29;25.12;62.07
66119;DHT22;52912;48.564;9.302;2023-07-31T13:57:54;24.74;62.00
66119;DHT22;52912;48.564;9.302;2023-07-31T14:00:20;24.60;61.03
66119;DHT22;52912;48.564;9.302;2023-07-31T14:02:45;24.54;60.88
66119;DHT22;52912;48.564;9.302;2023-07-31T14:05:10;24.46;60.74
66119;DHT22;52912;48.564;9.302;2023-07-31T14:07:36;24.50;60.55
66119;DHT22;52912;48.564;9.302;2023-07-31T14:10:03;24.40;60.43
66119;DHT22;52912;48.564;9.302;2023-07-31T14:12:29;24.36;60.22
66119;DHT22;52912;48.564;9.302;2023-07-31T14:14:54;24.37;60.15
66119;DHT22;52912;48.564;9.302;2023-07-31T14:17:20;24.05;60.00
66119;DHT22;52912;48.564;9.302;2023-07-31T14:19:45;23.97;60.29
66119;DHT22;52912;48.564;9.302;2023-07-31T14:22:10;23.78;60.14
66119;DHT22;52912;48.564;9.302;2023-07-31T14:24:36;23.72;60.61
66119;DHT22;52912;48.564;9.302;2023-07-31T14:27:03;23.60;60.97
66119;DHT22;52912;48.564;9.302;2023-07-31T14:29:29;23.64;61.06
66119;DHT22;52912;48.564;9.302;2023-07-31T14:31:55;23.49;61.55
66119;DHT22;52912;48.564;9.302;2023-07-31T14:34:20;23.54;62.15
66119;DHT22;52912;48.564;9.302;2023-07-31T14:36:45;23.23;62.92
66119;DHT22;52912;48.564;9.302;2023-07-31T14:39:11;23.23;62.49
66119;DHT22;52912;48.564;9.302;2023-07-31T14:41:36;23.27;62.45
66119;DHT22;52912;48.564;9.302;2023-07-31T14:44:03;23.27;62.36
66119;DHT22;52912;48.564;9.302;2023-07-31T14:46:29;23.27;62.53
66119;DHT22;52912;48.564;9.302;2023-07-31T14:48:54;23.29;63.07
66119;DHT22;52912;48.564;9.302;2023-07-31T14:51:20;23.34;63.14
66119;DHT22;52912;48.564;9.302;2023-07-31T14:53:46;23.20;63.39
66119;DHT22;52912;48.564;9.302;2023-07-31T14:56:11;23.26;64.03
66119;DHT22;52912;48.564;9.302;2023-07-31T14:58:37;23.27;63.39
66119;DHT22;52912;48.564;9.302;2023-07-31T15:01:03;23.15;63.63
66119;DHT22;52912;48.564;9.302;2023-07-31T15:03:29;23.09;64.11
66119;DHT22;52912;48.564;9.302;2023-07-31T15:05:54;22.94;64.52
66119;DHT22;52912;48.564;9.302;2023-07-31T15:08:20;23.08;64.42
66119;DHT22;52912;48.564;9.302;2023-07-31T15:10:45;22.85;64.66
66119;DHT22;52912;48.564;9.302;2023-07-31T15:13:11;22.90;64.53
66119;DHT22;52912;48.564;9.302;2023-07-31T15:15:36;22.75;64.61
66119;DHT22;52912;48.564;9.302;2023-07-31T15:18:03;22.78;64.83
66119;DHT22;52912;48.564;9.302;2023-07-31T15:20:28;22.90;64.35
66119;DHT22;52912;48.564;9.302;2023-07-31T15:22:55;23.05;63.98
66119;DHT22;52912;48.564;9.302;2023-07-31T15:25:21;23.01;64.24
66119;DHT22;52912;48.564;9.302;2023-07-31T15:27:46;22.99;64.68